Terminal Aerodrome Forecast
Issued by NWS

Home | Current Version | Previous Version | Text Only | Print | Product List | Glossary On
Versions: 1 2 3 4 5 6 7 8 9 10 11 12 13 14 15 16 17 18 19 20 21 22 23 24 25
000
FTUS41 KBUF 251500 AAA
TAFIAG
TAF AMD
KIAG 251505Z 2515/2612 23015G25KT P6SM FEW015 SCT040 BKN100
     FM251700 24020G32KT P6SM SCT015 BKN035
      TEMPO 2517/2520 BKN025
     FM252200 26014G23KT P6SM SCT040 BKN200
     FM260200 27012KT P6SM SCT070
     FM260900 27012KT P6SM BKN040=

USA.gov is the U.S. government's official web portal to all federal, state and local government web resources and services.